createdAt,value
2023-03-10T00:00:08.753Z,61.67
2023-03-10T00:02:36.951Z,61.96
2023-03-10T00:05:06.791Z,62.16
2023-03-10T00:07:35.014Z,62.24
2023-03-10T00:10:03.650Z,62.31
2023-03-10T00:12:31.866Z,62.29
2023-03-10T00:15:00.156Z,62.28
2023-03-10T00:17:28.819Z,62.41
2023-03-10T00:19:57.339Z,62.35
2023-03-10T00:22:25.723Z,62.57
2023-03-10T00:24:53.858Z,62.72
2023-03-10T00:27:22.169Z,62.78
2023-03-10T00:29:52.377Z,62.84
2023-03-10T00:32:20.598Z,63.04
2023-03-10T00:34:48.914Z,63.07
2023-03-10T00:37:18.175Z,63.11
2023-03-10T00:39:49.840Z,63.13
2023-03-10T00:42:18.032Z,63.24
2023-03-10T00:44:48.023Z,63.39
2023-03-10T00:47:16.974Z,63.46
2023-03-10T00:49:45.264Z,63.48
2023-03-10T00:52:13.424Z,63.60
2023-03-10T00:54:42.126Z,63.74
2023-03-10T00:57:10.471Z,63.82
2023-03-10T00:59:50.001Z,63.94
2023-03-10T01:02:19.802Z,63.95
2023-03-10T01:04:48.367Z,64.08
2023-03-10T01:07:16.677Z,63.90
2023-03-10T01:09:44.861Z,63.94
2023-03-10T01:12:13.063Z,64.09
2023-03-10T01:14:41.262Z,64.27
2023-03-10T01:17:09.979Z,64.28
2023-03-10T01:19:38.157Z,64.34
2023-03-10T01:22:06.360Z,64.68
2023-03-10T01:24:34.642Z,64.71
2023-03-10T01:27:02.821Z,64.63
2023-03-10T01:29:31.115Z,64.68
2023-03-10T01:31:59.366Z,64.94
2023-03-10T01:34:28.014Z,65.01
2023-03-10T01:36:56.261Z,65.14
2023-03-10T01:39:24.423Z,65.27
2023-03-10T01:41:52.612Z,65.32
2023-03-10T01:44:21.639Z,65.34
2023-03-10T01:46:52.887Z,65.42
2023-03-10T01:49:31.301Z,65.42
2023-03-10T01:52:04.017Z,65.61
2023-03-10T01:54:42.343Z,65.78
2023-03-10T01:57:13.910Z,65.82
2023-03-10T01:59:43.441Z,65.86
2023-03-10T02:02:12.084Z,65.75
2023-03-10T02:04:44.044Z,65.81
2023-03-10T02:07:13.888Z,65.87
2023-03-10T02:09:45.892Z,66.24
2023-03-10T02:12:15.269Z,66.27
2023-03-10T02:14:47.075Z,66.29
2023-03-10T02:17:17.950Z,66.46
2023-03-10T02:20:02.535Z,66.77
2023-03-10T02:22:32.605Z,66.96
2023-03-10T02:25:07.998Z,67.07
2023-03-10T02:27:38.291Z,67.08
2023-03-10T02:30:11.701Z,67.14
2023-03-10T02:32:42.783Z,67.04
2023-03-10T02:35:11.900Z,67.30
2023-03-10T02:37:46.266Z,67.35
2023-03-10T02:40:34.750Z,67.37
2023-03-10T02:43:13.678Z,67.53
2023-03-10T02:45:44.712Z,67.77
2023-03-10T02:48:16.004Z,67.77
2023-03-10T02:50:46.843Z,67.91
2023-03-10T02:53:18.227Z,67.77
2023-03-10T02:55:46.764Z,67.92
2023-03-10T02:58:15.447Z,67.82
2023-03-10T03:00:45.341Z,67.94
2023-03-10T03:03:16.154Z,68.03
2023-03-10T03:05:44.751Z,68.04
2023-03-10T03:08:13.469Z,68.10
2023-03-10T03:10:43.097Z,68.37
2023-03-10T03:13:12.351Z,68.16
2023-03-10T03:15:42.004Z,68.19
2023-03-10T03:18:10.976Z,68.18
2023-03-10T03:20:40.439Z,68.19
2023-03-10T03:23:09.570Z,68.24
2023-03-10T03:25:40.627Z,68.11
2023-03-10T03:28:10.984Z,68.14
2023-03-10T03:30:40.117Z,68.15
2023-03-10T03:33:08.756Z,68.06
2023-03-10T03:35:38.134Z,68.36
2023-03-10T03:38:07.869Z,68.23
2023-03-10T03:40:39.296Z,68.39
2023-03-10T03:43:07.705Z,68.46
2023-03-10T03:45:36.071Z,68.37
2023-03-10T03:48:04.677Z,68.61
2023-03-10T03:50:33.447Z,68.57
2023-03-10T03:53:05.748Z,68.71
2023-03-10T03:55:35.167Z,68.71
2023-03-10T03:58:03.882Z,68.86
2023-03-10T04:00:33.769Z,68.80
2023-03-10T04:03:03.343Z,68.92
2023-03-10T04:05:31.807Z,68.84
2023-03-10T04:08:00.127Z,68.88
2023-03-10T04:10:29.904Z,68.75
2023-03-10T04:12:58.239Z,68.89
2023-03-10T04:15:27.368Z,68.95
2023-03-10T04:17:57.180Z,68.89
2023-03-10T04:20:26.129Z,68.97
2023-03-10T04:22:54.901Z,69.11
2023-03-10T04:25:26.123Z,69.05
2023-03-10T04:27:54.533Z,69.04
2023-03-10T04:30:28.296Z,69.14
2023-03-10T04:32:59.301Z,69.45
2023-03-10T04:35:29.042Z,69.29
2023-03-10T04:37:57.834Z,69.30
2023-03-10T04:40:26.331Z,69.48
2023-03-10T04:46:21.830Z,69.83
2023-03-10T04:48:51.383Z,69.81
2023-03-10T04:51:19.747Z,69.73
2023-03-10T04:53:52.369Z,69.61
2023-03-10T04:56:21.050Z,69.77
2023-03-10T04:58:49.268Z,69.72
2023-03-10T05:01:18.012Z,69.57
2023-03-10T05:03:49.730Z,69.59
2023-03-10T05:06:21.499Z,69.66
2023-03-10T05:09:05.399Z,69.80
2023-03-10T05:11:34.330Z,69.91
2023-03-10T05:14:03.120Z,69.98
2023-03-10T05:16:31.481Z,69.81
2023-03-10T05:18:59.692Z,69.70
2023-03-10T05:21:29.365Z,69.86
2023-03-10T05:23:58.735Z,69.82
2023-03-10T05:26:27.642Z,69.85
2023-03-10T05:28:56.130Z,69.97
2023-03-10T05:31:44.760Z,70.23
2023-03-10T05:34:16.927Z,70.41
2023-03-10T05:36:46.037Z,70.40
2023-03-10T05:39:16.440Z,70.46
2023-03-10T05:41:47.153Z,70.42
2023-03-10T05:44:15.265Z,70.46
2023-03-10T05:46:43.559Z,70.44
2023-03-10T05:49:11.869Z,70.57
2023-03-10T05:51:40.495Z,70.74
2023-03-10T05:54:09.187Z,70.71
2023-03-10T05:56:37.784Z,70.77
2023-03-10T05:59:06.754Z,70.96
2023-03-10T06:01:36.728Z,71.00
2023-03-10T06:04:05.165Z,71.08
2023-03-10T06:06:34.358Z,71.04
2023-03-10T06:09:03.934Z,71.25
2023-03-10T06:11:33.150Z,71.35
2023-03-10T06:14:01.379Z,71.40
2023-03-10T06:16:29.742Z,71.42
2023-03-10T06:18:58.382Z,71.40
2023-03-10T06:21:28.083Z,71.45
2023-03-10T06:23:56.350Z,71.61
2023-03-10T06:26:24.521Z,71.72
2023-03-10T06:28:53.027Z,71.82
2023-03-10T06:31:23.760Z,71.86
2023-03-10T06:33:52.243Z,72.07
2023-03-10T06:36:21.395Z,71.97
2023-03-10T06:38:49.756Z,71.99
2023-03-10T06:41:18.206Z,71.96
2023-03-10T06:43:47.365Z,72.16
2023-03-10T06:46:15.929Z,72.03
2023-03-10T06:48:45.271Z,72.02
2023-03-10T06:51:17.095Z,72.05
2023-03-10T06:53:45.396Z,72.11
2023-03-10T06:56:18.097Z,72.22
2023-03-10T06:58:47.403Z,72.26
2023-03-10T07:01:24.939Z,72.08
2023-03-10T07:03:53.591Z,71.99
2023-03-10T07:06:22.305Z,71.91
2023-03-10T07:08:51.112Z,71.99
2023-03-10T07:11:22.893Z,72.18
2023-03-10T07:14:43.677Z,72.03
2023-03-10T07:21:34.303Z,72.19
2023-03-10T07:24:03.265Z,72.14
2023-03-10T07:26:31.817Z,72.19
2023-03-10T07:29:02.015Z,71.94
2023-03-10T07:31:35.966Z,72.23
2023-03-10T07:37:58.636Z,72.38
2023-03-10T07:40:36.221Z,71.98
2023-03-10T07:46:37.174Z,72.14
2023-03-10T07:50:22.190Z,72.00
2023-03-10T07:52:50.864Z,72.16
2023-03-10T07:55:19.562Z,72.21
2023-03-10T07:58:12.700Z,72.18
2023-03-10T08:00:41.420Z,72.15
2023-03-10T08:03:46.689Z,72.22
2023-03-10T08:06:20.475Z,72.24
2023-03-10T08:08:49.326Z,71.95
2023-03-10T08:14:47.259Z,72.13
2023-03-10T08:17:15.883Z,71.89
2023-03-10T08:19:44.286Z,71.82
2023-03-10T08:22:12.601Z,71.77
2023-03-10T08:24:41.440Z,71.64
2023-03-10T08:27:09.634Z,71.95
2023-03-10T08:29:37.823Z,72.05
2023-03-10T08:32:07.241Z,71.57
2023-03-10T08:34:38.941Z,71.85
2023-03-10T08:37:10.150Z,71.70
2023-03-10T08:39:39.409Z,71.73
2023-03-10T08:42:11.079Z,71.86
2023-03-10T08:44:40.354Z,72.08
2023-03-10T08:47:10.233Z,72.13
2023-03-10T08:49:38.511Z,71.96
2023-03-10T08:52:21.772Z,72.07
2023-03-10T08:54:50.036Z,72.47
2023-03-10T08:57:37.336Z,72.10
2023-03-10T09:00:29.818Z,72.25
2023-03-10T09:03:00.630Z,72.21
2023-03-10T09:05:31.327Z,71.85
2023-03-10T09:08:07.430Z,72.17
2023-03-10T09:10:36.849Z,72.26
2023-03-10T09:13:13.618Z,72.16
2023-03-10T09:15:42.226Z,72.52
2023-03-10T09:18:12.070Z,72.29
2023-03-10T09:20:41.379Z,72.49
2023-03-10T09:23:11.122Z,71.92
2023-03-10T09:25:40.177Z,72.03
2023-03-10T09:28:10.862Z,72.25
2023-03-10T09:30:59.629Z,72.17
2023-03-10T09:33:28.577Z,72.02
2023-03-10T09:36:06.483Z,71.93
2023-03-10T09:38:36.289Z,72.16
2023-03-10T09:41:38.116Z,71.85
2023-03-10T09:44:23.919Z,71.64
2023-03-10T09:47:05.278Z,72.00
2023-03-10T09:49:38.728Z,72.09
2023-03-10T09:52:22.182Z,72.21
2023-03-10T09:54:58.702Z,72.08
2023-03-10T10:02:02.580Z,72.39
2023-03-10T10:04:36.671Z,72.26
2023-03-10T10:07:12.919Z,72.28
2023-03-10T10:10:29.731Z,72.36
2023-03-10T10:13:47.111Z,72.48
2023-03-10T10:16:45.147Z,72.47
2023-03-10T10:19:18.628Z,72.72
2023-03-10T10:26:09.029Z,72.74
2023-03-10T10:28:41.904Z,72.64
2023-03-10T10:31:17.085Z,72.75
2023-03-10T10:34:10.021Z,72.75
2023-03-10T10:36:51.412Z,72.74
2023-03-10T10:39:28.244Z,72.72
2023-03-10T10:42:13.582Z,72.83
2023-03-10T10:44:43.855Z,72.77
2023-03-10T10:47:26.236Z,72.77
2023-03-10T10:49:56.296Z,72.88
2023-03-10T10:52:26.027Z,72.94
2023-03-10T10:54:59.394Z,73.17
2023-03-10T10:57:32.286Z,73.09
2023-03-10T11:00:24.639Z,72.89
2023-03-10T11:04:12.450Z,72.66
2023-03-10T11:06:40.899Z,72.73
2023-03-10T11:09:53.826Z,72.61
2023-03-10T11:12:49.288Z,72.69
2023-03-10T11:15:23.976Z,72.45
2023-03-10T11:17:57.006Z,72.28
2023-03-10T11:20:32.245Z,72.09
2023-03-10T11:23:14.585Z,71.81
2023-03-10T11:25:50.095Z,72.09
2023-03-10T11:28:40.009Z,72.38
2023-03-10T11:31:20.245Z,72.35
2023-03-10T11:33:54.194Z,72.11
2023-03-10T11:36:38.404Z,72.16
2023-03-10T11:39:21.404Z,71.84
2023-03-10T11:42:05.295Z,71.45
2023-03-10T11:44:38.862Z,71.59
2023-03-10T11:47:16.682Z,71.21
2023-03-10T11:49:52.275Z,70.97
2023-03-10T11:52:25.564Z,71.01
2023-03-10T11:55:00.774Z,70.85
2023-03-10T11:57:36.684Z,70.65
2023-03-10T12:00:18.205Z,70.35
2023-03-10T12:02:58.820Z,70.10
2023-03-10T12:05:31.981Z,69.91
2023-03-10T12:08:04.298Z,69.42
2023-03-10T12:10:38.189Z,69.57
2023-03-10T12:13:12.898Z,69.38
2023-03-10T12:15:42.984Z,69.15
2023-03-10T12:18:12.004Z,68.73
2023-03-10T12:20:40.304Z,68.38
2023-03-10T12:23:39.795Z,68.27
2023-03-10T12:26:08.178Z,68.28
2023-03-10T12:28:37.404Z,68.27
2023-03-10T12:31:07.378Z,68.11
2023-03-10T12:33:52.721Z,67.91
2023-03-10T12:36:34.832Z,68.00
2023-03-10T12:39:37.324Z,67.91
2023-03-10T12:42:26.328Z,67.91
2023-03-10T12:45:02.744Z,67.72
2023-03-10T12:47:43.549Z,67.57
2023-03-10T12:50:33.050Z,67.48
2023-03-10T12:53:21.009Z,67.37
2023-03-10T12:56:23.333Z,67.34
2023-03-10T12:59:05.152Z,67.05
2023-03-10T13:01:55.096Z,66.83
2023-03-10T13:04:26.710Z,66.56
2023-03-10T13:07:03.041Z,66.21
2023-03-10T13:09:37.961Z,65.96
2023-03-10T13:12:16.961Z,65.75
2023-03-10T13:14:51.000Z,65.40
2023-03-10T13:17:29.948Z,65.19
2023-03-10T13:20:51.045Z,64.92
2023-03-10T13:23:41.845Z,64.73
2023-03-10T13:26:16.815Z,64.30
2023-03-10T13:28:52.781Z,64.11
2023-03-10T13:31:24.378Z,63.91
2023-03-10T13:35:04.301Z,63.58
2023-03-10T13:37:32.616Z,63.41
2023-03-10T13:40:09.790Z,63.28
2023-03-10T13:42:44.285Z,63.04
2023-03-10T13:45:23.041Z,63.01
2023-03-10T13:47:55.650Z,63.01
2023-03-10T13:50:24.915Z,62.97
2023-03-10T13:52:56.695Z,63.05
2023-03-10T13:55:49.632Z,62.90
2023-03-10T13:58:18.380Z,62.81
2023-03-10T14:00:49.925Z,62.62
2023-03-10T14:03:19.643Z,62.48
2023-03-10T14:10:21.175Z,62.38
2023-03-10T14:23:38.313Z,61.48
2023-03-10T14:26:33.508Z,61.20
2023-03-10T14:29:11.726Z,60.97
2023-03-10T14:31:42.672Z,60.86
2023-03-10T14:34:15.665Z,60.88
2023-03-10T14:36:46.470Z,60.98
2023-03-10T14:39:18.127Z,60.98
2023-03-10T14:42:21.919Z,61.08
2023-03-10T14:44:55.646Z,60.98
2023-03-10T14:47:50.838Z,61.05
2023-03-10T14:50:24.255Z,60.86
2023-03-10T14:52:58.499Z,60.79
2023-03-10T14:55:41.163Z,60.90
2023-03-10T14:58:17.923Z,60.99
2023-03-10T15:00:50.226Z,61.03
2023-03-10T15:03:23.909Z,61.22
2023-03-10T15:05:54.887Z,61.05
2023-03-10T15:08:26.809Z,61.02
2023-03-10T15:10:58.821Z,61.03
2023-03-10T15:13:31.033Z,61.11
2023-03-10T15:16:02.348Z,60.93
2023-03-10T15:23:59.900Z,60.78
2023-03-10T15:26:31.561Z,60.67
2023-03-10T15:29:53.521Z,60.71
2023-03-10T15:33:12.565Z,60.74
2023-03-10T15:35:44.331Z,60.71
2023-03-10T15:38:49.414Z,60.68
2023-03-10T15:41:47.605Z,60.68
2023-03-10T15:45:07.747Z,60.76
2023-03-10T15:52:45.244Z,60.82
2023-03-10T15:59:10.801Z,60.88
2023-03-10T16:01:42.082Z,60.93
2023-03-10T16:04:13.180Z,60.96
2023-03-10T16:11:26.783Z,60.98
2023-03-10T16:13:58.004Z,60.96
2023-03-10T16:17:16.175Z,60.93
2023-03-10T16:22:59.722Z,61.16
2023-03-10T16:25:34.346Z,61.11
2023-03-10T16:28:16.020Z,61.17
2023-03-10T16:30:53.087Z,61.31
2023-03-10T16:33:40.350Z,61.24
2023-03-10T16:36:14.896Z,61.42
2023-03-10T16:38:46.426Z,61.42
2023-03-10T16:41:21.187Z,61.53
2023-03-10T16:43:54.709Z,61.59
2023-03-10T16:46:32.196Z,61.63
2023-03-10T16:49:04.078Z,61.74
2023-03-10T16:51:38.201Z,61.89
2023-03-10T16:54:12.098Z,62.02
2023-03-10T16:56:45.675Z,62.07
2023-03-10T16:59:39.107Z,62.06
2023-03-10T17:02:14.347Z,62.05
2023-03-10T17:04:44.765Z,62.08
2023-03-10T17:07:15.818Z,62.07
2023-03-10T17:09:47.023Z,62.21
2023-03-10T17:12:18.512Z,62.29
2023-03-10T17:14:50.909Z,62.23
2023-03-10T17:17:22.083Z,62.40
2023-03-10T17:19:55.049Z,62.40
2023-03-10T17:22:27.827Z,62.42
2023-03-10T17:25:03.298Z,62.37
2023-03-10T17:27:38.175Z,62.38
2023-03-10T17:30:11.998Z,62.35
2023-03-10T17:32:42.815Z,62.47
2023-03-10T17:35:25.801Z,62.55
2023-03-10T17:38:06.114Z,62.59
2023-03-10T17:40:41.713Z,62.62
2023-03-10T17:43:23.237Z,62.71
2023-03-10T17:46:36.628Z,62.60
2023-03-10T17:49:07.959Z,62.68
2023-03-10T17:51:41.055Z,62.76
2023-03-10T17:54:13.083Z,62.63
2023-03-10T17:56:44.574Z,62.86
2023-03-10T17:59:16.540Z,62.88
2023-03-10T18:01:49.326Z,63.03
2023-03-10T18:04:20.569Z,62.94
2023-03-10T18:06:51.929Z,63.24
2023-03-10T18:09:23.111Z,63.24
2023-03-10T18:11:55.436Z,63.30
2023-03-10T18:14:26.988Z,63.26
2023-03-10T18:16:59.453Z,63.42
2023-03-10T18:19:30.584Z,63.31
2023-03-10T18:22:05.811Z,63.25
2023-03-10T18:24:44.706Z,63.33
2023-03-10T18:27:16.695Z,63.34
2023-03-10T18:29:47.868Z,63.46
2023-03-10T18:32:19.034Z,63.47
2023-03-10T18:34:50.519Z,63.44
2023-03-10T18:37:21.529Z,63.45
2023-03-10T18:39:53.382Z,63.59
2023-03-10T18:42:24.402Z,63.63
2023-03-10T18:44:56.081Z,63.95
2023-03-10T18:47:27.645Z,63.87
2023-03-10T18:49:59.701Z,64.12
2023-03-10T18:52:33.082Z,64.04
2023-03-10T18:55:05.456Z,63.92
2023-03-10T18:57:36.693Z,63.74
2023-03-10T19:00:12.432Z,63.70
2023-03-10T19:02:43.723Z,63.91
2023-03-10T19:05:19.857Z,64.02
2023-03-10T19:07:50.868Z,63.82
2023-03-10T19:10:22.502Z,64.09
2023-03-10T19:12:53.503Z,64.01
2023-03-10T19:15:24.912Z,63.99
2023-03-10T19:17:56.359Z,64.02
2023-03-10T19:20:27.869Z,63.92
2023-03-10T19:22:59.989Z,63.83
2023-03-10T19:25:31.999Z,63.85
2023-03-10T19:28:03.004Z,63.86
2023-03-10T19:30:34.196Z,63.87
2023-03-10T19:33:05.457Z,63.74
2023-03-10T19:35:36.499Z,63.74
2023-03-10T19:38:08.236Z,63.69
2023-03-10T19:40:39.673Z,63.44
2023-03-10T19:43:10.757Z,63.62
2023-03-10T19:45:42.376Z,63.73
2023-03-10T19:48:13.847Z,63.65
2023-03-10T19:50:44.752Z,63.47
2023-03-10T19:53:15.486Z,63.58
2023-03-10T19:55:46.472Z,63.50
2023-03-10T19:58:18.497Z,63.74
2023-03-10T20:00:49.975Z,63.47
2023-03-10T20:03:23.790Z,63.69
2023-03-10T20:05:54.988Z,63.85
2023-03-10T20:08:26.346Z,63.72
2023-03-10T20:11:02.181Z,63.84
2023-03-10T20:13:35.871Z,63.89
2023-03-10T20:16:08.623Z,63.93
2023-03-10T20:18:39.856Z,64.09
2023-03-10T20:21:11.124Z,63.92
2023-03-10T20:23:47.532Z,63.80
2023-03-10T20:26:19.792Z,63.90
2023-03-10T20:28:51.692Z,63.97
2023-03-10T20:31:24.407Z,64.07
2023-03-10T20:33:55.765Z,64.22
2023-03-10T20:36:26.609Z,64.23
2023-03-10T20:38:58.010Z,64.37
2023-03-10T20:41:28.800Z,64.31
2023-03-10T20:44:00.683Z,64.30
2023-03-10T20:46:32.817Z,64.53
2023-03-10T20:49:06.010Z,64.67
2023-03-10T20:51:37.089Z,64.45
2023-03-10T20:54:08.119Z,64.61
2023-03-10T20:56:39.057Z,64.56
2023-03-10T20:59:10.211Z,64.42
2023-03-10T21:01:42.585Z,64.60
2023-03-10T21:04:13.755Z,64.51
2023-03-10T21:06:47.918Z,64.56
2023-03-10T21:09:22.323Z,64.64
2023-03-10T21:11:53.525Z,64.56
2023-03-10T21:14:27.265Z,64.48
2023-03-10T21:17:00.041Z,64.44
2023-03-10T21:19:32.538Z,64.42
2023-03-10T21:22:09.717Z,64.74
2023-03-10T21:24:41.374Z,64.52
2023-03-10T21:27:12.431Z,64.38
2023-03-10T21:29:43.857Z,64.45
2023-03-10T21:32:14.722Z,64.55
2023-03-10T21:34:46.928Z,64.41
2023-03-10T21:37:17.940Z,64.28
2023-03-10T21:39:52.679Z,64.34
2023-03-10T21:42:23.673Z,64.39
2023-03-10T21:44:55.992Z,64.52
2023-03-10T21:47:26.753Z,64.40
2023-03-10T21:49:57.954Z,64.35
2023-03-10T21:52:28.814Z,64.02
2023-03-10T21:55:00.526Z,64.21
2023-03-10T21:57:32.931Z,64.23
2023-03-10T22:00:04.248Z,64.06
2023-03-10T22:02:38.987Z,64.16
2023-03-10T22:05:12.844Z,64.19
2023-03-10T22:07:44.331Z,64.09
2023-03-10T22:10:17.885Z,64.10
2023-03-10T22:12:49.933Z,64.28
2023-03-10T22:15:23.258Z,64.17
2023-03-10T22:17:56.833Z,64.04
2023-03-10T22:20:29.458Z,64.31
2023-03-10T22:23:00.451Z,64.22
2023-03-10T22:25:31.508Z,64.20
2023-03-10T22:28:03.012Z,64.34
2023-03-10T22:30:33.852Z,64.36
2023-03-10T22:33:06.924Z,64.35
2023-03-10T22:35:38.526Z,64.62
2023-03-10T22:38:09.851Z,64.58
2023-03-10T22:40:40.931Z,64.56
2023-03-10T22:43:11.779Z,64.55
2023-03-10T22:45:42.947Z,64.70
2023-03-10T22:48:13.847Z,64.78
2023-03-10T22:50:46.846Z,64.82
2023-03-10T22:53:19.753Z,64.95
2023-03-10T22:55:52.045Z,65.08
2023-03-10T22:58:23.126Z,65.11
2023-03-10T23:00:53.798Z,64.92
2023-03-10T23:03:24.835Z,65.29
2023-03-10T23:05:58.618Z,65.26
2023-03-10T23:08:29.516Z,64.97
2023-03-10T23:11:00.224Z,65.28
2023-03-10T23:13:31.044Z,65.39
2023-03-10T23:16:02.037Z,65.43
2023-03-10T23:18:32.826Z,65.52
2023-03-10T23:21:03.815Z,65.59
2023-03-10T23:23:35.006Z,65.47
2023-03-10T23:26:06.233Z,65.49
2023-03-10T23:28:36.978Z,65.67
2023-03-10T23:31:08.766Z,65.74
2023-03-10T23:33:40.737Z,65.59
2023-03-10T23:36:13.619Z,65.87
2023-03-10T23:38:44.442Z,65.67
2023-03-10T23:41:15.385Z,65.69
2023-03-10T23:43:46.114Z,65.77
2023-03-10T23:46:16.909Z,65.70
2023-03-10T23:48:47.693Z,65.86
2023-03-10T23:51:19.085Z,65.92
2023-03-10T23:53:49.827Z,65.91
2023-03-10T23:56:20.619Z,65.98
2023-03-10T23:58:51.281Z,65.90
